Time;durP1;ratioP1;P1;durP2;ratioP2;P2;SDS_P1;SDS_P2;PMS_P1;PMS_P2;Temp;Humidity;BMP_temperature;BMP_pressure;BME280_temperature;BME280_humidity;BME280_pressure;Samples;Min_cycle;Max_cycle;Signal;HPM_P1;HPM_P2
2024/01/06 00:00:16;;;;;;;8.13;4.20;;;;;;;2.78;100.00;99320.78;4983368;28;20230;-73
2024/01/06 00:02:43;;;;;;;10.00;4.27;;;;;;;2.88;100.00;99319.31;4978906;28;20213;-72
2024/01/06 00:05:09;;;;;;;7.67;4.30;;;;;;;2.98;100.00;99323.06;4980396;28;20344;-73
2024/01/06 00:07:36;;;;;;;11.80;4.40;;;;;;;3.00;100.00;99323.97;4984054;28;20227;-73
2024/01/06 00:10:03;;;;;;;9.30;4.43;;;;;;;3.06;100.00;99314.56;4985265;28;20747;-73
2024/01/06 00:12:29;;;;;;;11.73;4.27;;;;;;;3.30;100.00;99319.53;4980751;28;20207;-73
2024/01/06 00:14:56;;;;;;;8.93;4.20;;;;;;;3.25;100.00;99318.53;4982959;28;20199;-73
2024/01/06 00:17:22;;;;;;;9.70;3.73;;;;;;;3.32;100.00;99316.97;4984858;28;20717;-72
2024/01/06 00:19:51;;;;;;;8.60;4.20;;;;;;;3.38;100.00;99317.09;4981987;28;20311;-73
2024/01/06 00:22:19;;;;;;;9.47;4.23;;;;;;;3.41;100.00;99314.56;4979115;28;20530;-73
2024/01/06 00:24:45;;;;;;;8.20;3.70;;;;;;;3.42;100.00;99326.81;4981632;28;20210;-73
2024/01/06 00:27:13;;;;;;;8.27;4.50;;;;;;;3.39;100.00;99319.75;4985178;28;20609;-73
2024/01/06 00:29:39;;;;;;;9.27;4.40;;;;;;;3.42;100.00;99326.81;4977168;28;20234;-73
2024/01/06 00:32:06;;;;;;;7.70;4.27;;;;;;;3.38;100.00;99323.22;4982995;28;20205;-73
2024/01/06 00:34:32;;;;;;;7.87;4.10;;;;;;;3.51;100.00;99320.91;4980913;28;20197;-73
2024/01/06 00:36:59;;;;;;;8.57;4.30;;;;;;;3.62;100.00;99319.44;4977086;28;20224;-73
2024/01/06 00:39:25;;;;;;;8.00;3.80;;;;;;;3.55;100.00;99323.63;4981392;28;20240;-73
2024/01/06 00:41:52;;;;;;;7.03;3.63;;;;;;;3.63;100.00;99324.72;4986212;28;20620;-73
2024/01/06 00:44:18;;;;;;;7.23;3.20;;;;;;;3.73;100.00;99321.47;4984079;28;20208;-72
2024/01/06 00:46:45;;;;;;;9.13;4.10;;;;;;;3.71;100.00;99319.66;4984781;28;20224;-73
2024/01/06 00:49:11;;;;;;;6.37;3.43;;;;;;;3.74;100.00;99311.88;4980817;28;20602;-73
2024/01/06 00:51:38;;;;;;;7.27;3.37;;;;;;;3.77;100.00;99314.56;4986681;28;20197;-73
2024/01/06 00:54:05;;;;;;;6.47;2.90;;;;;;;3.71;100.00;99317.03;4985348;28;20224;-72
2024/01/06 00:56:32;;;;;;;6.43;3.50;;;;;;;3.68;100.00;99328.31;5001018;28;20241;-73
2024/01/06 00:58:58;;;;;;;6.37;3.00;;;;;;;3.64;100.00;99328.22;4984348;28;20212;-73
2024/01/06 01:01:25;;;;;;;7.87;3.10;;;;;;;3.64;100.00;99333.44;4981185;28;20228;-73
2024/01/06 01:03:51;;;;;;;6.00;3.33;;;;;;;3.61;100.00;99334.25;4997086;28;20685;-73
2024/01/06 01:06:18;;;;;;;9.13;3.23;;;;;;;3.60;100.00;99329.88;4980737;28;20291;-73
2024/01/06 01:08:45;;;;;;;10.63;3.33;;;;;;;3.67;100.00;99342.25;4984823;28;20208;-73
2024/01/06 01:11:11;;;;;;;6.30;3.17;;;;;;;3.62;100.00;99336.03;4986400;28;20225;-73
2024/01/06 01:13:38;;;;;;;6.27;3.27;;;;;;;3.69;100.00;99344.91;4983791;28;20200;-73
2024/01/06 01:16:05;;;;;;;6.37;3.17;;;;;;;3.72;100.00;99345.88;4982376;28;20303;-73
2024/01/06 01:18:31;;;;;;;7.17;3.53;;;;;;;3.68;100.00;99344.03;4989696;28;20193;-73
2024/01/06 01:20:58;;;;;;;6.07;3.10;;;;;;;3.68;100.00;99346.66;4989258;28;20653;-73
2024/01/06 01:23:24;;;;;;;6.53;3.00;;;;;;;3.72;100.00;99347.59;5002893;28;20213;-73
2024/01/06 01:25:51;;;;;;;8.37;3.37;;;;;;;3.77;100.00;99354.72;4985632;28;20749;-72
2024/01/06 01:28:17;;;;;;;6.30;3.23;;;;;;;3.73;100.00;99342.41;4998838;28;20224;-73
2024/01/06 01:30:44;;;;;;;5.50;2.80;;;;;;;3.73;100.00;99347.63;5002308;28;20259;-73
2024/01/06 01:33:11;;;;;;;7.03;3.40;;;;;;;3.88;100.00;99352.34;5000932;28;20205;-73
2024/01/06 01:35:37;;;;;;;5.67;3.07;;;;;;;3.89;100.00;99356.72;4987234;28;20201;-73
2024/01/06 01:38:04;;;;;;;5.83;3.13;;;;;;;3.80;100.00;99361.75;4986236;28;20452;-73
2024/01/06 01:40:30;;;;;;;8.53;3.20;;;;;;;3.78;100.00;99358.22;4983630;28;20216;-73
2024/01/06 01:42:57;;;;;;;4.77;2.87;;;;;;;3.74;100.00;99366.84;4985516;28;20197;-73
2024/01/06 01:45:23;;;;;;;5.03;3.13;;;;;;;3.72;100.00;99374.66;4982938;28;20295;-73
2024/01/06 01:47:50;;;;;;;7.53;3.20;;;;;;;3.73;100.00;99370.31;4984879;28;20227;-73
2024/01/06 01:50:17;;;;;;;6.37;3.03;;;;;;;3.73;100.00;99357.22;4988607;28;20240;-73
2024/01/06 01:52:44;;;;;;;6.20;3.20;;;;;;;3.78;100.00;99371.31;4984515;28;20607;-73
2024/01/06 01:55:10;;;;;;;8.87;3.53;;;;;;;3.85;100.00;99369.72;5000088;28;20201;-73
2024/01/06 01:57:37;;;;;;;9.53;3.17;;;;;;;3.85;100.00;99367.09;4983084;28;20228;-73
2024/01/06 02:00:04;;;;;;;4.43;2.83;;;;;;;3.89;100.00;99375.06;4986438;28;20217;-73
2024/01/06 02:02:32;;;;;;;6.10;3.47;;;;;;;3.88;100.00;99367.16;4981076;28;20193;-73
2024/01/06 02:04:58;;;;;;;8.00;3.47;;;;;;;4.12;100.00;99372.97;4990011;28;20209;-73
2024/01/06 02:07:25;;;;;;;8.00;3.20;;;;;;;4.19;100.00;99376.63;4988131;28;20311;-73
2024/01/06 02:09:51;;;;;;;7.93;3.17;;;;;;;4.18;100.00;99386.22;4982036;28;20197;-73
2024/01/06 02:12:18;;;;;;;7.77;3.80;;;;;;;4.19;100.00;99380.13;4982876;28;20210;-72
2024/01/06 02:14:44;;;;;;;5.23;3.27;;;;;;;4.13;100.00;99374.75;4985620;28;20609;-72
2024/01/06 02:17:11;;;;;;;4.83;2.87;;;;;;;4.11;100.00;99384.31;4976920;28;20225;-73
2024/01/06 02:19:37;;;;;;;5.17;3.00;;;;;;;4.04;100.00;99378.06;4981320;28;20209;-73
2024/01/06 02:22:04;;;;;;;7.00;3.50;;;;;;;4.14;100.00;99378.25;4985740;28;20201;-73
2024/01/06 02:24:30;;;;;;;8.17;3.47;;;;;;;4.19;100.00;99382.75;4987438;28;20224;-73
2024/01/06 02:26:57;;;;;;;5.50;2.80;;;;;;;4.18;100.00;99393.19;4994696;28;20240;-73
2024/01/06 02:29:23;;;;;;;7.40;3.50;;;;;;;4.06;100.00;99388.56;4985045;28;20228;-73
2024/01/06 02:31:49;;;;;;;4.60;2.60;;;;;;;4.09;100.00;99388.63;4978428;28;20288;-73
2024/01/06 02:34:16;;;;;;;9.50;2.97;;;;;;;4.04;100.00;99396.41;4978290;28;20299;-73
2024/01/06 02:36:43;;;;;;;6.43;3.17;;;;;;;4.09;100.00;99399.13;4980871;28;20787;-72
2024/01/06 02:39:09;;;;;;;4.10;2.60;;;;;;;4.01;100.00;99400.69;4982163;28;20193;-73
2024/01/06 02:41:36;;;;;;;6.97;2.77;;;;;;;3.89;100.00;99403.88;4985347;28;20221;-73
2024/01/06 02:44:03;;;;;;;4.97;2.63;;;;;;;3.88;100.00;99403.84;4982222;28;20292;-73
2024/01/06 02:46:30;;;;;;;6.70;3.07;;;;;;;3.92;100.00;99408.28;4981462;28;20229;-72
2024/01/06 02:48:56;;;;;;;6.57;3.03;;;;;;;3.88;100.00;99403.84;4977034;28;20577;-73
2024/01/06 02:51:23;;;;;;;6.47;2.60;;;;;;;4.05;100.00;99411.25;4974105;28;20273;-73
2024/01/06 02:53:49;;;;;;;5.87;2.93;;;;;;;4.07;100.00;99406.94;4981669;28;20209;-73
2024/01/06 02:56:16;;;;;;;7.73;2.80;;;;;;;3.96;100.00;99392.69;4984429;28;20299;-73
2024/01/06 02:58:42;;;;;;;6.37;2.83;;;;;;;3.87;100.00;99389.84;4985364;28;20280;-73
2024/01/06 03:01:11;;;;;;;3.93;2.50;;;;;;;3.83;100.00;99395.88;4975944;28;20649;-72
2024/01/06 03:03:38;;;;;;;6.87;2.80;;;;;;;3.86;100.00;99406.41;4983001;28;20758;-73
2024/01/06 03:06:04;;;;;;;5.70;2.90;;;;;;;3.86;100.00;99416.00;4976265;28;20224;-72
2024/01/06 03:08:31;;;;;;;6.60;2.87;;;;;;;3.84;100.00;99420.31;4996184;28;20247;-72
2024/01/06 03:10:57;;;;;;;4.63;2.20;;;;;;;3.94;100.00;99424.94;4979582;28;20284;-72
2024/01/06 03:13:24;;;;;;;3.67;2.30;;;;;;;3.94;100.00;99417.94;4995497;28;20230;-72
2024/01/06 03:15:50;;;;;;;4.77;2.53;;;;;;;3.96;100.00;99418.88;4984047;28;20198;-72
2024/01/06 03:18:17;;;;;;;6.77;3.13;;;;;;;3.95;100.00;99414.50;4983130;28;20193;-72
2024/01/06 03:20:44;;;;;;;4.53;2.80;;;;;;;4.00;100.00;99411.97;4981442;28;20533;-71
2024/01/06 03:23:10;;;;;;;6.47;3.20;;;;;;;4.02;100.00;99405.06;4979280;28;20209;-72
2024/01/06 03:25:36;;;;;;;6.23;2.50;;;;;;;4.03;100.00;99404.22;4984827;28;20208;-73
2024/01/06 03:28:03;;;;;;;5.57;2.20;;;;;;;4.06;100.00;99413.03;4976613;28;20201;-71
2024/01/06 03:30:29;;;;;;;7.47;2.80;;;;;;;4.08;100.00;99410.44;4983496;28;20230;-73
2024/01/06 03:32:56;;;;;;;5.17;2.30;;;;;;;4.11;100.00;99415.75;4975384;28;20674;-72
2024/01/06 03:35:23;;;;;;;3.23;1.80;;;;;;;4.14;100.00;99417.56;4984978;28;20231;-73
2024/01/06 03:37:49;;;;;;;4.77;2.20;;;;;;;4.14;100.00;99413.19;4983445;28;20232;-72
2024/01/06 03:40:16;;;;;;;4.93;2.00;;;;;;;4.17;100.00;99415.00;4979079;28;20653;-72
2024/01/06 03:42:42;;;;;;;5.27;2.17;;;;;;;4.17;100.00;99418.50;4996578;28;20203;-73
2024/01/06 03:45:09;;;;;;;4.13;1.83;;;;;;;4.23;100.00;99421.28;4982111;28;20428;-72
2024/01/06 03:47:35;;;;;;;3.93;2.20;;;;;;;4.24;100.00;99423.03;4981545;28;20224;-72
2024/01/06 03:50:03;;;;;;;5.93;2.20;;;;;;;4.26;100.00;99420.44;4978504;28;20613;-73
2024/01/06 03:52:29;;;;;;;3.73;2.47;;;;;;;4.32;100.00;99428.44;4984544;28;20560;-73
2024/01/06 03:54:56;;;;;;;6.80;2.10;;;;;;;4.35;100.00;99432.03;4978091;28;20227;-72
2024/01/06 03:57:22;;;;;;;3.60;2.00;;;;;;;4.35;100.00;99432.03;4979596;28;20271;-72
2024/01/06 03:59:49;;;;;;;3.93;1.90;;;;;;;4.40;100.00;99430.41;4977212;28;20283;-72
2024/01/06 04:02:15;;;;;;;5.73;2.07;;;;;;;4.44;100.00;99440.97;4981636;28;20226;-72
2024/01/06 04:04:41;;;;;;;3.53;1.87;;;;;;;4.43;100.00;99440.09;4983420;28;20211;-72
2024/01/06 04:07:08;;;;;;;4.87;2.00;;;;;;;4.49;100.00;99440.22;4978148;28;20234;-72
2024/01/06 04:09:37;;;;;;;5.27;1.93;;;;;;;4.47;100.00;99435.78;4982064;28;20202;-72
2024/01/06 04:12:03;;;;;;;4.60;2.03;;;;;;;4.52;100.00;99436.78;4977889;28;20255;-72
2024/01/06 04:14:29;;;;;;;4.17;1.83;;;;;;;4.54;100.00;99435.94;4985112;28;20207;-72
2024/01/06 04:16:56;;;;;;;4.73;1.80;;;;;;;4.55;100.00;99426.34;4994900;28;20222;-72
2024/01/06 04:19:23;;;;;;;4.17;1.80;;;;;;;4.59;100.00;99433.44;4997937;28;20224;-72
2024/01/06 04:21:50;;;;;;;4.30;2.00;;;;;;;4.60;100.00;99435.19;4999372;28;20603;-72
2024/01/06 04:24:16;;;;;;;5.10;2.10;;;;;;;4.62;100.00;99442.25;4980649;28;20282;-72
2024/01/06 04:26:44;;;;;;;3.87;2.10;;;;;;;4.64;100.00;99440.53;4978545;28;20293;-72
2024/01/06 04:29:12;;;;;;;6.17;2.50;;;;;;;4.64;100.00;99445.78;4994679;28;20454;-72
2024/01/06 04:31:40;;;;;;;4.17;2.20;;;;;;;4.69;100.00;99453.75;4977847;28;20205;-72
2024/01/06 04:34:06;;;;;;;5.10;2.07;;;;;;;4.68;100.00;99445.00;4972616;28;20675;-71
2024/01/06 04:36:33;;;;;;;3.70;2.00;;;;;;;4.73;100.00;99447.72;4980239;28;20226;-72
2024/01/06 04:38:59;;;;;;;4.80;2.30;;;;;;;4.71;100.00;99439.81;4983044;28;20206;-72
2024/01/06 04:41:26;;;;;;;4.03;2.00;;;;;;;4.70;100.00;99434.53;4983124;28;20332;-72
2024/01/06 04:43:52;;;;;;;3.97;1.90;;;;;;;4.69;100.00;99436.28;4981873;28;20289;-72
2024/01/06 04:46:19;;;;;;;6.23;2.47;;;;;;;4.75;100.00;99438.13;4980586;28;20215;-72
2024/01/06 04:48:45;;;;;;;5.90;2.27;;;;;;;4.74;100.00;99425.88;4985545;28;20201;-72
2024/01/06 04:51:11;;;;;;;3.93;2.13;;;;;;;4.66;100.00;99428.34;4982617;28;20193;-72
2024/01/06 04:53:38;;;;;;;4.00;2.10;;;;;;;4.66;100.00;99428.34;4986602;28;20198;-72
2024/01/06 04:56:05;;;;;;;4.97;2.17;;;;;;;4.64;100.00;99423.91;4978939;28;20218;-72
2024/01/06 04:58:31;;;;;;;4.77;2.20;;;;;;;4.82;100.00;99434.81;4986610;28;20245;-72
2024/01/06 05:00:58;;;;;;;4.47;2.10;;;;;;;4.86;100.00;99441.91;4986525;28;20231;-72
2024/01/06 05:03:24;;;;;;;4.80;2.57;;;;;;;4.87;100.00;99442.78;4980952;28;20197;-72
2024/01/06 05:05:51;;;;;;;4.00;2.37;;;;;;;4.78;100.00;99437.31;4979816;28;20686;-72
2024/01/06 05:08:18;;;;;;;4.63;2.03;;;;;;;4.76;100.00;99449.50;4980022;28;20758;-73
2024/01/06 05:10:46;;;;;;;4.33;2.20;;;;;;;4.69;100.00;99445.88;4981771;28;20198;-72
2024/01/06 05:13:15;;;;;;;7.27;2.43;;;;;;;4.73;100.00;99460.81;4984547;28;20200;-72
2024/01/06 05:15:41;;;;;;;4.43;2.43;;;;;;;4.77;100.00;99460.03;5003862;28;20470;-72
2024/01/06 05:18:08;;;;;;;3.93;2.20;;;;;;;4.71;100.00;99454.66;4979703;28;20208;-71
2024/01/06 05:20:35;;;;;;;3.53;2.17;;;;;;;4.73;100.00;99459.09;4982331;28;20206;-72
2024/01/06 05:23:01;;;;;;;5.73;2.53;;;;;;;4.83;100.00;99456.69;4979669;28;20685;-72
2024/01/06 05:25:28;;;;;;;6.50;2.70;;;;;;;4.86;100.00;99462.00;4980164;28;20276;-72
2024/01/06 05:27:54;;;;;;;4.43;2.53;;;;;;;4.91;100.00;99465.59;4983876;28;20320;-72
2024/01/06 05:30:21;;;;;;;7.20;2.47;;;;;;;4.80;100.00;99454.84;4987333;28;20586;-71
2024/01/06 05:32:47;;;;;;;4.03;2.13;;;;;;;4.75;100.00;99458.22;4984183;28;20277;-71
2024/01/06 05:35:16;;;;;;;8.17;2.97;;;;;;;4.77;100.00;99461.78;4986756;28;20209;-72
2024/01/06 05:37:42;;;;;;;4.83;2.60;;;;;;;4.78;100.00;99453.06;4982763;28;20231;-72
2024/01/06 05:40:09;;;;;;;5.47;2.40;;;;;;;4.74;100.00;99452.09;4983964;28;20366;-72
2024/01/06 05:42:36;;;;;;;5.37;2.40;;;;;;;4.89;100.00;99455.06;5003224;28;20223;-72
2024/01/06 05:45:02;;;;;;;6.70;2.70;;;;;;;4.82;100.00;99455.81;4996940;28;20200;-71
2024/01/06 05:47:30;;;;;;;6.10;2.70;;;;;;;4.91;100.00;99468.22;4997493;28;20215;-71
2024/01/06 05:49:57;;;;;;;4.90;2.70;;;;;;;4.92;100.00;99467.38;4983431;28;20671;-72
2024/01/06 05:52:24;;;;;;;5.63;2.67;;;;;;;4.79;100.00;99474.06;4982979;28;20199;-73
2024/01/06 05:54:50;;;;;;;5.50;2.90;;;;;;;4.77;100.00;99477.50;4979383;28;20206;-72
2024/01/06 05:57:17;;;;;;;4.03;2.30;;;;;;;4.80;100.00;99481.06;4976115;28;20661;-71
2024/01/06 05:59:44;;;;;;;11.10;2.67;;;;;;;4.75;100.00;99484.47;4980116;28;20209;-72
2024/01/06 06:02:10;;;;;;;4.30;2.40;;;;;;;4.73;100.00;99480.06;4970640;28;20221;-73
2024/01/06 06:04:37;;;;;;;5.73;2.60;;;;;;;4.81;100.00;99485.50;4979364;28;20558;-72
2024/01/06 06:07:03;;;;;;;4.33;2.60;;;;;;;4.76;100.00;99480.97;4978386;28;20219;-72
2024/01/06 06:09:30;;;;;;;4.23;2.37;;;;;;;4.73;100.00;99479.19;4983881;28;20710;-72
2024/01/06 06:11:57;;;;;;;6.40;2.33;;;;;;;4.75;100.00;99484.47;4985927;28;20202;-71
2024/01/06 06:14:23;;;;;;;4.93;2.20;;;;;;;4.81;100.00;99479.38;4988699;28;20208;-72
2024/01/06 06:16:54;;;;;;;3.43;2.27;;;;;;;4.85;100.00;99487.34;4977232;28;20231;-71
2024/01/06 06:19:20;;;;;;;5.10;2.60;;;;;;;4.84;100.00;99484.69;4979263;28;20232;-72
2024/01/06 06:21:47;;;;;;;8.73;2.43;;;;;;;4.83;100.00;99488.16;4986096;28;20230;-72
2024/01/06 06:24:13;;;;;;;4.27;2.40;;;;;;;4.76;100.00;99483.59;4981290;28;20204;-72
2024/01/06 06:26:40;;;;;;;4.20;2.33;;;;;;;4.63;100.00;99485.09;4978077;28;20290;-72
2024/01/06 06:29:08;;;;;;;5.23;2.60;;;;;;;4.51;100.00;99497.94;4979170;28;21381;-72
2024/01/06 06:31:34;;;;;;;4.83;2.30;;;;;;;4.37;100.00;99500.19;4979428;28;20391;-71
2024/01/06 06:34:01;;;;;;;4.23;2.53;;;;;;;4.28;100.00;99515.72;4977755;28;20200;-72
2024/01/06 06:36:32;;;;;;;5.70;2.27;;;;;;;4.23;100.00;99517.34;5011279;23;20716;-72
2024/01/06 06:38:59;;;;;;;3.67;2.17;;;;;;;4.24;100.00;99522.63;4985330;28;20226;-73
2024/01/06 06:41:26;;;;;;;5.27;2.80;;;;;;;4.36;100.00;99520.28;4980265;28;20223;-73
2024/01/06 06:43:52;;;;;;;5.87;2.80;;;;;;;4.43;100.00;99533.56;4978836;28;20468;-73
2024/01/06 06:46:18;;;;;;;6.43;2.60;;;;;;;4.49;100.00;99534.59;5003633;28;20675;-72
2024/01/06 06:48:45;;;;;;;6.87;2.83;;;;;;;4.47;100.00;99536.28;4969116;28;20207;-72
2024/01/06 06:51:12;;;;;;;3.80;2.30;;;;;;;4.47;100.00;99541.53;4984997;28;20211;-73
2024/01/06 06:53:38;;;;;;;3.80;2.13;;;;;;;4.47;100.00;99540.66;4968148;28;20203;-72
2024/01/06 06:56:05;;;;;;;3.87;2.33;;;;;;;4.49;100.00;99541.56;4964578;28;20214;-73
2024/01/06 06:58:31;;;;;;;3.90;2.13;;;;;;;4.51;100.00;99543.38;4969337;28;20206;-72
2024/01/06 07:00:57;;;;;;;3.60;2.20;;;;;;;4.52;100.00;99547.78;4964717;28;20226;-72
2024/01/06 07:03:24;;;;;;;4.93;2.10;;;;;;;4.54;100.00;99547.81;4969140;28;20329;-72
2024/01/06 07:05:51;;;;;;;5.17;2.90;;;;;;;4.57;100.00;99561.88;4970520;28;20624;-73
2024/01/06 07:08:18;;;;;;;5.47;2.20;;;;;;;4.60;100.00;99555.81;4969773;28;20727;-72
2024/01/06 07:10:44;;;;;;;5.00;2.43;;;;;;;4.71;100.00;99562.19;4965436;28;20776;-72
2024/01/06 07:13:11;;;;;;;3.53;2.10;;;;;;;4.71;100.00;99560.44;4961746;28;20219;-72
2024/01/06 07:15:37;;;;;;;4.90;2.60;;;;;;;4.75;100.00;99568.38;4964903;28;21016;-72
2024/01/06 07:18:04;;;;;;;6.27;2.77;;;;;;;4.69;100.00;99564.78;4962698;28;20264;-73
2024/01/06 07:20:30;;;;;;;2.80;2.00;;;;;;;4.66;100.00;99566.44;4961999;28;20234;-73
2024/01/06 07:22:57;;;;;;;4.40;2.07;;;;;;;4.68;100.00;99575.22;4967910;28;20229;-72
2024/01/06 07:25:23;;;;;;;3.07;2.03;;;;;;;4.68;100.00;99573.50;4964795;28;20198;-72
2024/01/06 07:27:50;;;;;;;8.80;2.37;;;;;;;4.82;100.00;99571.22;4969435;28;20223;-72
2024/01/06 07:30:20;;;;;;;5.37;2.50;;;;;;;4.81;100.00;99571.19;4965443;28;20330;-72
2024/01/06 07:32:49;;;;;;;5.60;2.60;;;;;;;4.77;100.00;99575.44;4965788;28;20302;-72
2024/01/06 07:35:16;;;;;;;4.00;2.23;;;;;;;4.78;100.00;99582.44;4964743;28;20246;-72
2024/01/06 07:37:42;;;;;;;4.27;2.40;;;;;;;4.77;100.00;99572.81;4968403;28;20234;-73
2024/01/06 07:40:09;;;;;;;4.23;2.40;;;;;;;4.79;100.00;99585.97;4966612;28;20385;-72
2024/01/06 07:42:36;;;;;;;4.87;2.40;;;;;;;4.80;100.00;99586.00;4980789;28;20220;-72
2024/01/06 07:45:03;;;;;;;5.93;2.77;;;;;;;5.03;100.00;99594.41;4968648;28;20619;-72
2024/01/06 07:47:29;;;;;;;5.33;2.17;;;;;;;5.04;100.00;99604.94;4965619;28;20283;-73
2024/01/06 07:49:57;;;;;;;5.50;2.20;;;;;;;5.00;100.00;99597.84;4963705;28;20292;-72
2024/01/06 07:52:23;;;;;;;4.10;2.20;;;;;;;4.96;100.00;99603.88;4965950;28;20197;-72
2024/01/06 07:54:50;;;;;;;6.17;2.53;;;;;;;5.07;100.00;99618.97;4965157;28;20210;-72
2024/01/06 07:57:16;;;;;;;6.13;2.40;;;;;;;5.11;100.00;99621.72;4966732;28;20672;-72
2024/01/06 07:59:43;;;;;;;3.83;2.20;;;;;;;5.08;100.00;99626.88;4959903;28;20238;-72
2024/01/06 08:02:09;;;;;;;6.23;2.60;;;;;;;5.00;100.00;99631.97;4965220;28;20316;-72
2024/01/06 08:04:36;;;;;;;7.33;2.57;;;;;;;5.02;100.00;99643.38;4966268;28;20316;-72
2024/01/06 08:07:02;;;;;;;4.37;2.27;;;;;;;5.02;100.00;99637.25;4965109;28;20228;-73
2024/01/06 08:09:29;;;;;;;4.83;2.50;;;;;;;5.07;100.00;99634.72;4965456;28;20237;-72
2024/01/06 08:11:56;;;;;;;6.80;2.70;;;;;;;5.07;100.00;99643.47;4965801;28;20204;-72
2024/01/06 08:14:23;;;;;;;4.37;2.20;;;;;;;5.07;100.00;99640.84;4965039;28;20200;-72
2024/01/06 08:16:49;;;;;;;8.03;2.40;;;;;;;5.11;100.00;99644.44;4966539;28;20232;-72
2024/01/06 08:19:16;;;;;;;3.57;2.30;;;;;;;5.14;100.00;99636.63;4968328;28;20208;-72
2024/01/06 08:21:42;;;;;;;6.90;2.50;;;;;;;5.15;100.00;99641.91;4966785;28;20308;-72
2024/01/06 08:24:09;;;;;;;6.33;2.67;;;;;;;5.19;100.00;99640.25;4969010;28;20288;-72
2024/01/06 08:26:35;;;;;;;5.83;2.23;;;;;;;5.25;100.00;99645.66;4970051;28;20223;-72
2024/01/06 08:29:02;;;;;;;6.40;2.70;;;;;;;5.33;100.00;99646.72;4972922;28;20299;-72
2024/01/06 08:31:28;;;;;;;3.57;2.40;;;;;;;5.32;100.00;99647.56;4967766;28;20207;-72
2024/01/06 08:33:55;;;;;;;4.43;1.90;;;;;;;5.42;100.00;99653.91;4969596;28;20205;-72
2024/01/06 08:36:22;;;;;;;6.07;2.30;;;;;;;5.49;100.00;99655.81;4971482;28;20227;-72
2024/01/06 08:38:48;;;;;;;5.80;2.47;;;;;;;5.59;100.00;99657.75;4973441;28;20311;-71
2024/01/06 08:41:14;;;;;;;3.90;2.47;;;;;;;5.66;100.00;99657.94;4970138;28;20232;-72
2024/01/06 08:43:41;;;;;;;5.17;2.57;;;;;;;5.72;100.00;99653.69;4971016;28;20327;-72
2024/01/06 08:46:07;;;;;;;5.30;2.80;;;;;;;5.78;100.00;99656.44;4975748;28;20208;-72
2024/01/06 08:48:34;;;;;;;4.13;2.43;;;;;;;5.78;100.00;99657.31;4972415;28;20207;-73
2024/01/06 08:51:01;;;;;;;3.57;2.30;;;;;;;5.82;100.00;99663.50;4975754;28;20290;-72
2024/01/06 08:53:28;;;;;;;3.87;2.50;;;;;;;5.85;100.00;99663.56;4976868;28;20670;-72
2024/01/06 08:55:54;;;;;;;6.10;2.83;;;;;;;5.82;100.00;99668.75;4993340;28;20571;-72
2024/01/06 08:58:21;;;;;;;5.93;2.53;;;;;;;5.83;100.00;99673.16;4977574;28;20220;-72
2024/01/06 09:00:47;;;;;;;5.97;2.60;;;;;;;5.95;100.00;99673.44;4988584;28;20566;-72
2024/01/06 09:03:13;;;;;;;5.43;2.63;;;;;;;6.07;100.00;99675.44;4975950;28;20232;-72
2024/01/06 09:05:40;;;;;;;7.03;2.60;;;;;;;6.17;100.00;99672.13;4975597;28;20210;-72
2024/01/06 09:08:07;;;;;;;5.27;2.10;;;;;;;6.15;100.00;99673.84;4975643;28;20247;-73
2024/01/06 09:10:33;;;;;;;5.83;2.43;;;;;;;6.15;100.00;99672.09;4974321;28;20205;-73
2024/01/06 09:13:01;;;;;;;4.77;2.40;;;;;;;6.20;100.00;99674.81;4977070;28;20677;-73
2024/01/06 09:15:28;;;;;;;3.53;2.23;;;;;;;6.26;100.00;99680.19;4973641;28;20205;-73
2024/01/06 09:17:54;;;;;;;5.57;2.57;;;;;;;6.36;100.00;99689.13;4976955;28;20236;-73
2024/01/06 09:20:23;;;;;;;5.50;2.30;;;;;;;6.36;100.00;99686.50;4977153;28;20706;-72
2024/01/06 09:22:49;;;;;;;3.53;2.10;;;;;;;6.39;100.00;99691.81;4972801;28;20221;-72
2024/01/06 09:25:16;;;;;;;4.43;2.30;;;;;;;6.37;100.00;99694.41;4973888;28;20590;-72
2024/01/06 09:27:42;;;;;;;4.87;2.50;;;;;;;6.41;100.00;99701.53;4968059;28;20730;-72
2024/01/06 09:30:09;;;;;;;6.33;2.67;;;;;;;6.50;100.00;99701.72;4962612;28;20205;-71
2024/01/06 09:32:36;;;;;;;6.13;2.50;;;;;;;6.53;100.00;99699.13;4973410;28;20207;-73
2024/01/06 09:35:03;;;;;;;4.90;2.40;;;;;;;6.57;100.00;99707.97;4971848;28;20264;-74
2024/01/06 09:37:30;;;;;;;4.80;2.37;;;;;;;6.55;100.00;99705.31;4970548;28;20265;-74
2024/01/06 09:39:56;;;;;;;4.53;2.50;;;;;;;6.58;100.00;99717.63;4974037;28;20206;-72
2024/01/06 09:42:22;;;;;;;6.60;2.53;;;;;;;6.52;100.00;99712.25;4977670;28;20220;-72
2024/01/06 09:44:49;;;;;;;3.53;2.30;;;;;;;6.38;100.00;99711.97;4989556;28;20301;-72
2024/01/06 09:47:18;;;;;;;4.67;2.40;;;;;;;6.36;100.00;99718.94;4969543;28;20240;-72
2024/01/06 09:49:53;;;;;;;6.13;2.63;;;;;;;6.32;100.00;99709.22;4977630;28;20210;-73
2024/01/06 09:52:23;;;;;;;3.77;2.50;;;;;;;6.41;100.00;99719.94;4986782;28;20246;-74
2024/01/06 09:54:53;;;;;;;3.73;2.50;;;;;;;6.35;100.00;99721.56;4988312;28;20543;-74
2024/01/06 09:57:21;;;;;;;4.57;2.37;;;;;;;6.29;100.00;99725.84;4975245;28;20584;-74
2024/01/06 09:59:47;;;;;;;6.30;2.50;;;;;;;6.29;100.00;99723.22;4994912;28;20208;-70
2024/01/06 10:02:16;;;;;;;7.03;2.70;;;;;;;6.34;100.00;99739.06;4970442;28;20672;-70
2024/01/06 10:04:45;;;;;;;6.10;2.47;;;;;;;6.42;100.00;99736.63;4973388;28;20295;-71
2024/01/06 10:07:13;;;;;;;6.13;2.50;;;;;;;6.48;100.00;99736.72;4973894;28;20609;-71
2024/01/06 10:09:44;;;;;;;5.13;3.00;;;;;;;6.51;100.00;99740.31;4974732;28;20217;-71
2024/01/06 10:12:10;;;;;;;7.03;3.10;;;;;;;6.68;100.00;99732.72;4975740;28;20300;-70
2024/01/06 10:14:38;;;;;;;3.97;2.33;;;;;;;6.57;100.00;99726.38;4975712;28;20212;-71
2024/01/06 10:17:08;;;;;;;4.37;2.30;;;;;;;6.55;100.00;99730.72;4970710;28;21740;-70
2024/01/06 10:19:36;;;;;;;5.83;2.40;;;;;;;6.57;100.00;99737.78;4972657;28;20204;-71
2024/01/06 10:22:03;;;;;;;4.27;2.60;;;;;;;6.64;100.00;99733.53;4973805;28;20207;-70
2024/01/06 10:24:31;;;;;;;6.13;2.67;;;;;;;6.69;100.00;99734.47;4971737;28;20624;-71
2024/01/06 10:26:58;;;;;;;4.27;2.53;;;;;;;6.81;100.00;99734.72;4967802;28;20253;-71
2024/01/06 10:29:25;;;;;;;5.53;2.60;;;;;;;6.94;100.00;99733.19;4963342;28;20201;-71
2024/01/06 10:31:52;;;;;;;4.97;2.77;;;;;;;7.03;100.00;99740.34;4967411;28;20213;-71
2024/01/06 10:34:21;;;;;;;7.73;2.80;;;;;;;7.20;100.00;99736.22;4968243;28;20662;-71
2024/01/06 10:36:49;;;;;;;4.13;2.80;;;;;;;7.35;100.00;99751.41;4963949;28;20319;-71
2024/01/06 10:39:16;;;;;;;6.43;2.53;;;;;;;7.41;100.00;99743.59;4968119;28;20261;-71
2024/01/06 10:41:44;;;;;;;5.63;2.73;;;;;;;7.50;100.00;99741.09;4968130;28;20588;-70
2024/01/06 10:44:11;;;;;;;3.77;2.53;;;;;;;7.72;100.00;99742.31;4967936;28;20217;-71
2024/01/06 10:46:39;;;;;;;4.13;2.40;;;;;;;7.83;100.00;99736.34;4967518;28;20653;-71
2024/01/06 10:49:08;;;;;;;6.47;2.40;;;;;;;7.89;100.00;99738.16;4968355;28;20207;-70
2024/01/06 10:51:37;;;;;;;4.97;2.63;;;;;;;7.89;100.00;99734.63;4972775;28;20220;-71
2024/01/06 10:54:05;;;;;;;4.10;2.70;;;;;;;7.85;100.00;99731.06;4972342;28;20215;-73
2024/01/06 10:56:38;;;;;;;6.20;2.70;;;;;;;7.93;100.00;99733.81;4970369;28;20305;-73
2024/01/06 10:59:07;;;;;;;6.33;2.43;;;;;;;7.88;100.00;99735.50;4971981;28;20258;-72
2024/01/06 11:01:35;;;;;;;4.77;2.40;;;;;;;7.84;100.00;99745.13;4977601;28;20205;-73
2024/01/06 11:04:03;;;;;;;5.93;2.77;;;;;;;7.84;100.00;99743.38;4971075;28;20238;-73
2024/01/06 11:06:31;;;;;;;5.10;3.03;;;;;;;7.81;100.00;99734.53;4971101;28;20217;-73
2024/01/06 11:09:09;;;;;;;5.63;2.63;;;;;;;7.78;100.00;99732.75;4984673;28;20197;-73
2024/01/06 11:11:37;;;;;;;4.83;2.60;;;;;;;7.85;100.00;99724.06;4966825;28;20208;-73
2024/01/06 11:14:24;;;;;;;5.70;3.20;;;;;;;7.86;100.00;99731.09;4973666;28;20206;-73
2024/01/06 11:16:52;;;;;;;5.43;2.63;;;;;;;7.82;100.00;99726.66;4976448;28;20607;-73
2024/01/06 11:19:34;;;;;;;4.40;2.83;;;;;;;7.91;100.00;99725.88;4976553;28;20580;-73
2024/01/06 11:22:31;;;;;;;5.13;2.73;;;;;;;7.91;100.00;99717.97;4966625;28;20663;-73
2024/01/06 11:25:05;;;;;;;5.20;3.20;;;;;;;7.93;100.00;99718.00;4974687;28;20299;-73
2024/01/06 11:27:33;;;;;;;7.83;3.27;;;;;;;7.91;100.00;99730.28;4977518;28;20253;-73
2024/01/06 11:30:00;;;;;;;6.13;2.97;;;;;;;7.82;100.00;99724.03;4974706;28;20204;-73
2024/01/06 11:32:41;;;;;;;6.67;3.40;;;;;;;7.76;100.00;99720.41;4972964;28;20200;-73